首页
METAR-TAF:

METAR-TAF

机场 :

阿德萊德機場

阿德莱德, 澳大利亚

纬度: 34-56S, 经度: 138-31E, 海拔: 6米

当前天气观测

该预报发布于24分钟前的05:00 UTC
风速22节,风向西转西南,有时为35节阵风
温度 26°C
湿度 23%
气压 1005 hPa
能见度10公里或以上
少量云层高于1500英尺
多云层高于2000英尺
小阵雨

METAR: YPAD 190500Z 02011KT CAVOK 26/03 Q1005 FM0530 24022G35KT 9999 -SHRA FEW015 BKN020

时间: 15:54 (05:24 UTC)

预报

该预报发布于6小时和12分钟前的23:12 UTC
预报有效从19日的 00点(UTC)到 20日的 06点(UTC)
风速18节,风向北转东北,有时为30节阵风
能见度10公里或以上
1500米以下无云,无积雨云
从 19日的 0200点(UTC)
风速25节,风向,有时为35节阵风
能见度10公里或以上
小阵雨
从 19日的 0600点(UTC)
风速22节,风向西转西南,有时为35节阵风
能见度10公里或以上
少量云层高于1500英尺
多云层高于2000英尺
小阵雨
从 19日的 1000点(UTC)
风速14节,风向西南
能见度10公里或以上
散云层高于2500英尺
小阵雨
从 20日的 0000点(UTC)
风速12节,风向西南
能見度: 5000
少量云层高于3000英尺
散云层高于1500英尺
多云层高于2500英尺
阵雨
几率 30%
在之间 IN和TE点(UTC)
风速30节,风向多变,有时为42节阵风
能見度: 6000
散云层高于10000英尺, 积雨云.
雷暴, 雨

TAF: YPAD 182312Z 1900/2006 02018G30KT CAVOK FM190200 36025G35KT 9999 -SHRA NSC FM190600 24022G35KT 9999 -SHRA FEW015 BKN020 FM191000 23014KT 9999 -SHRA SCT025 FM200000 23012KT 9999 NSW FEW030 INTER 1917/1923 5000 SHRA SCT015 BKN025 PROB30 INTER 1902/1905 VRB30G42KT 6000 TSRA SCT100CB

超过4000个机场的气象观测和天气预报(METAR&TAF报告)。

可查询的气象台以黄色和红色小点在地图上表示。

将鼠标移到小点上方,可查看气象台名称。

然后点击查看天气观测和预报。

如需切换地图:点击带黑十字的绿色按钮放大地图;点击带横线的绿色按钮缩小地图;或者点击绿色箭头查看邻近地区的地图。


METAR-TAF: